Time;durP1;ratioP1;P1;durP2;ratioP2;P2;SDS_P1;SDS_P2;PMS_P1;PMS_P2;Temp;Humidity;BMP_temperature;BMP_pressure;BME280_temperature;BME280_humidity;BME280_pressure;Samples;Min_cycle;Max_cycle;Signal;HPM_P1;HPM_P2
2024/01/26 00:01:29;;;;;;;11.27;3.00;;;5.10;99.90;;;;;;5009676;28;20080;-58
2024/01/26 00:03:57;;;;;;;18.85;3.40;;;5.10;99.90;;;;;;5014425;28;20520;-59
2024/01/26 00:06:23;;;;;;;9.95;2.75;;;5.10;99.90;;;;;;5011687;28;20087;-59
2024/01/26 00:08:49;;;;;;;14.82;3.05;;;5.10;99.90;;;;;;5015679;28;20497;-59
2024/01/26 00:11:15;;;;;;;11.60;2.80;;;5.00;99.90;;;;;;5014490;28;20392;-59
2024/01/26 00:13:41;;;;;;;9.75;2.55;;;4.90;99.90;;;;;;5017287;28;20033;-59
2024/01/26 00:16:06;;;;;;;13.05;3.30;;;4.80;99.90;;;;;;5019630;28;20048;-59
2024/01/26 00:18:32;;;;;;;14.68;2.88;;;4.60;99.90;;;;;;5019604;28;20022;-59
2024/01/26 00:20:57;;;;;;;12.10;3.15;;;4.50;99.90;;;;;;5019564;28;20545;-59
2024/01/26 00:23:23;;;;;;;12.65;3.40;;;4.30;99.90;;;;;;5019637;28;20026;-59
2024/01/26 00:25:48;;;;;;;11.73;3.13;;;4.10;99.90;;;;;;5019353;28;20500;-59
2024/01/26 00:28:14;;;;;;;15.73;2.60;;;4.00;99.90;;;;;;5019480;28;20112;-58
2024/01/26 00:30:39;;;;;;;14.30;3.40;;;3.90;99.90;;;;;;5021537;28;20033;-59
2024/01/26 00:33:05;;;;;;;11.32;2.88;;;3.80;99.90;;;;;;5019376;28;20065;-59
2024/01/26 00:35:30;;;;;;;15.13;3.42;;;3.60;99.90;;;;;;5017568;28;20485;-59
2024/01/26 00:37:56;;;;;;;14.77;3.45;;;3.50;99.90;;;;;;5015501;28;20041;-59
2024/01/26 00:40:21;;;;;;;18.88;3.33;;;3.40;99.90;;;;;;5019497;28;20025;-58
2024/01/26 00:42:48;;;;;;;13.82;3.35;;;3.30;99.90;;;;;;5017563;28;20340;-59
2024/01/26 00:45:13;;;;;;;13.93;3.05;;;3.20;99.90;;;;;;5020719;28;20036;-59
2024/01/26 00:47:39;;;;;;;14.77;3.72;;;3.10;99.90;;;;;;5019234;28;20025;-59
2024/01/26 00:50:05;;;;;;;14.57;3.72;;;3.00;99.90;;;;;;5019139;28;20489;-59
2024/01/26 00:52:30;;;;;;;17.30;3.58;;;2.90;99.90;;;;;;5018881;28;20034;-59
2024/01/26 00:54:56;;;;;;;19.75;3.38;;;2.80;99.90;;;;;;5010601;28;20121;-59
2024/01/26 00:57:22;;;;;;;17.27;3.55;;;2.70;99.90;;;;;;5009077;28;20044;-59
2024/01/26 00:59:48;;;;;;;10.90;3.00;;;2.60;99.90;;;;;;5003768;28;20048;-59
2024/01/26 01:02:14;;;;;;;17.20;3.38;;;2.60;99.90;;;;;;5009069;28;20155;-59
2024/01/26 01:04:39;;;;;;;13.73;3.50;;;2.50;99.90;;;;;;5017905;28;20040;-59
2024/01/26 01:07:05;;;;;;;13.95;3.70;;;2.40;99.90;;;;;;5018932;28;20038;-59
2024/01/26 01:09:31;;;;;;;6.03;2.10;;;2.30;99.90;;;;;;5019129;28;20033;-59
2024/01/26 01:11:57;;;;;;;11.18;2.75;;;2.20;99.90;;;;;;5016694;28;20026;-59
2024/01/26 01:14:23;;;;;;;12.05;3.03;;;2.20;99.90;;;;;;5011915;28;20034;-59
2024/01/26 01:16:50;;;;;;;10.00;3.00;;;2.10;99.90;;;;;;5014425;28;20030;-59
2024/01/26 01:19:15;;;;;;;10.18;2.65;;;2.10;99.90;;;;;;5010907;28;20477;-59
2024/01/26 01:21:41;;;;;;;15.57;3.17;;;2.00;99.90;;;;;;5013260;28;20052;-60
2024/01/26 01:24:07;;;;;;;11.20;3.67;;;1.90;99.90;;;;;;5012600;28;20032;-60
2024/01/26 01:26:32;;;;;;;11.40;3.53;;;1.90;99.90;;;;;;5010031;28;20121;-59
2024/01/26 01:28:58;;;;;;;13.02;3.17;;;1.80;99.90;;;;;;5020557;28;20105;-59
2024/01/26 01:31:24;;;;;;;15.35;3.15;;;1.80;99.90;;;;;;5018862;28;20116;-59
2024/01/26 01:33:49;;;;;;;16.05;3.20;;;1.70;99.90;;;;;;5018966;28;20026;-59
2024/01/26 01:36:15;;;;;;;14.48;3.67;;;1.70;99.90;;;;;;5010284;28;20061;-59
2024/01/26 01:38:41;;;;;;;13.95;3.45;;;1.70;99.90;;;;;;5013778;28;20167;-59
2024/01/26 01:41:06;;;;;;;9.73;3.25;;;1.60;99.90;;;;;;5011506;28;20079;-59
2024/01/26 01:43:32;;;;;;;13.50;3.47;;;1.60;99.90;;;;;;5012788;28;20033;-59
2024/01/26 01:45:57;;;;;;;13.15;3.55;;;1.60;99.90;;;;;;5009404;28;20030;-59
2024/01/26 01:48:23;;;;;;;17.38;3.78;;;1.50;99.90;;;;;;5006033;28;20026;-59
2024/01/26 01:50:49;;;;;;;13.13;3.58;;;1.60;99.90;;;;;;5021162;28;20025;-59
2024/01/26 01:53:15;;;;;;;15.50;3.92;;;1.60;99.90;;;;;;5016287;28;20036;-59
2024/01/26 01:55:44;;;;;;;13.05;3.15;;;1.50;99.90;;;;;;5014270;28;20025;-60
2024/01/26 01:58:10;;;;;;;11.60;3.05;;;1.50;99.90;;;;;;5014092;28;20033;-59
2024/01/26 02:00:37;;;;;;;12.68;3.45;;;1.40;99.90;;;;;;5016395;28;20099;-59
2024/01/26 02:03:03;;;;;;;6.80;3.00;;;1.40;99.90;;;;;;5009158;28;20552;-59
2024/01/26 02:05:28;;;;;;;17.27;3.80;;;1.40;99.90;;;;;;5015977;28;20030;-59
2024/01/26 02:07:54;;;;;;;17.20;3.72;;;1.40;99.90;;;;;;5022324;28;20064;-59
2024/01/26 02:10:21;;;;;;;12.65;3.17;;;1.30;99.90;;;;;;5018479;28;20517;-59
2024/01/26 02:12:47;;;;;;;16.63;3.92;;;1.30;99.90;;;;;;5021725;28;20029;-59
2024/01/26 02:15:13;;;;;;;16.83;3.92;;;1.20;99.90;;;;;;5020571;28;20020;-59
2024/01/26 02:17:39;;;;;;;20.70;3.50;;;1.20;99.90;;;;;;5016150;28;20013;-60
2024/01/26 02:20:06;;;;;;;13.10;3.80;;;1.20;99.90;;;;;;5022163;28;20106;-59
2024/01/26 02:22:31;;;;;;;14.32;3.80;;;1.10;99.90;;;;;;5013654;28;20085;-59
2024/01/26 02:24:57;;;;;;;16.95;4.32;;;1.10;99.90;;;;;;5017777;28;20555;-59
2024/01/26 02:27:23;;;;;;;19.92;3.88;;;1.00;99.90;;;;;;5017596;28;20026;-59
2024/01/26 02:29:48;;;;;;;17.80;3.60;;;1.00;99.90;;;;;;5018950;28;20055;-59
2024/01/26 02:32:14;;;;;;;18.10;3.88;;;0.90;99.90;;;;;;5015558;28;20112;-59
2024/01/26 02:34:40;;;;;;;12.85;2.75;;;0.90;99.90;;;;;;5021925;28;20120;-60
2024/01/26 02:37:06;;;;;;;19.02;3.40;;;0.80;99.90;;;;;;5017296;28;20021;-59
2024/01/26 02:39:33;;;;;;;7.10;3.00;;;0.80;99.90;;;;;;5013797;28;20375;-59
2024/01/26 02:41:59;;;;;;;18.40;3.92;;;0.70;99.90;;;;;;5017340;28;20017;-59
2024/01/26 02:44:24;;;;;;;10.95;3.63;;;0.70;99.90;;;;;;5017480;28;20087;-59
2024/01/26 02:46:50;;;;;;;20.52;4.55;;;0.70;99.90;;;;;;5022094;28;20021;-59
2024/01/26 02:49:16;;;;;;;10.48;3.05;;;0.70;99.90;;;;;;5013357;28;20026;-59
2024/01/26 02:51:41;;;;;;;13.80;3.95;;;0.70;99.90;;;;;;5017180;28;20030;-59
2024/01/26 02:54:07;;;;;;;15.40;3.50;;;0.70;99.90;;;;;;5017422;28;20152;-60
2024/01/26 02:56:33;;;;;;;15.65;3.65;;;0.60;99.90;;;;;;5016775;28;20034;-59
2024/01/26 02:58:58;;;;;;;13.48;3.95;;;0.60;99.90;;;;;;5017257;28;20022;-59
2024/01/26 03:01:24;;;;;;;12.82;2.85;;;0.60;99.90;;;;;;5008521;28;20426;-59
2024/01/26 03:03:49;;;;;;;11.98;4.60;;;0.50;99.90;;;;;;5009617;28;20109;-60
2024/01/26 03:06:16;;;;;;;16.55;3.10;;;0.50;99.90;;;;;;5011742;28;20037;-60
2024/01/26 03:08:41;;;;;;;5.22;2.88;;;0.50;99.90;;;;;;5007051;28;20450;-60
2024/01/26 03:11:07;;;;;;;13.63;3.55;;;0.40;99.90;;;;;;5009272;28;20043;-60
2024/01/26 03:13:32;;;;;;;14.50;3.25;;;0.40;99.90;;;;;;5005795;28;20442;-60
2024/01/26 03:15:58;;;;;;;15.10;3.47;;;0.40;99.90;;;;;;5008852;28;20025;-60
2024/01/26 03:18:23;;;;;;;10.82;3.20;;;0.40;99.90;;;;;;5010524;28;20017;-60
2024/01/26 03:20:49;;;;;;;19.83;4.15;;;0.30;99.90;;;;;;5010242;28;20025;-60
2024/01/26 03:23:14;;;;;;;17.08;4.57;;;0.30;99.90;;;;;;5006437;28;20029;-61
2024/01/26 03:25:40;;;;;;;13.82;3.85;;;0.30;99.90;;;;;;5007695;28;20851;-60
2024/01/26 03:28:06;;;;;;;12.00;3.97;;;0.20;99.90;;;;;;5017437;28;20088;-60
2024/01/26 03:30:34;;;;;;;8.88;3.38;;;0.20;99.90;;;;;;5014590;28;20030;-60
2024/01/26 03:33:00;;;;;;;8.43;3.00;;;0.20;99.90;;;;;;5014533;28;20059;-60
2024/01/26 03:35:27;;;;;;;14.48;3.80;;;0.20;99.90;;;;;;5012388;28;20108;-60
2024/01/26 03:37:52;;;;;;;13.68;4.18;;;0.20;99.90;;;;;;5016388;28;20029;-60
2024/01/26 03:40:18;;;;;;;13.48;3.95;;;0.20;99.90;;;;;;5016329;28;20026;-60
2024/01/26 03:42:44;;;;;;;10.88;3.85;;;0.20;99.90;;;;;;5016564;28;20113;-60
2024/01/26 03:45:09;;;;;;;8.35;4.43;;;0.20;99.90;;;;;;5012360;28;20099;-60
2024/01/26 03:47:35;;;;;;;16.60;4.22;;;0.20;99.90;;;;;;5022185;28;20029;-60
2024/01/26 03:50:00;;;;;;;15.60;3.90;;;0.10;99.90;;;;;;5013290;28;20076;-60
2024/01/26 03:52:26;;;;;;;9.93;3.78;;;0.10;99.90;;;;;;5015117;28;20121;-60
2024/01/26 03:54:52;;;;;;;19.38;4.65;;;0.10;99.90;;;;;;5018340;28;20519;-59
2024/01/26 03:57:17;;;;;;;17.25;3.78;;;0.00;99.90;;;;;;5017793;28;20017;-60
2024/01/26 03:59:43;;;;;;;11.02;3.88;;;0.00;99.90;;;;;;5014006;28;20049;-60
2024/01/26 04:02:08;;;;;;;10.68;4.60;;;0.00;99.90;;;;;;5012022;28;20033;-60
2024/01/26 04:04:34;;;;;;;17.58;3.90;;;0.00;99.90;;;;;;5012098;28;20025;-60
2024/01/26 04:06:59;;;;;;;26.10;3.97;;;-0.10;99.90;;;;;;5013534;28;20041;-60
2024/01/26 04:09:25;;;;;;;21.63;4.22;;;-0.10;99.90;;;;;;5017313;28;20019;-60
2024/01/26 04:11:51;;;;;;;13.70;3.80;;;-0.10;99.90;;;;;;5019865;28;20033;-60
2024/01/26 04:14:16;;;;;;;12.80;3.90;;;-0.10;99.90;;;;;;5019874;28;20393;-60
2024/01/26 04:16:41;;;;;;;18.15;4.05;;;-0.20;99.90;;;;;;5017722;28;20033;-60
2024/01/26 04:19:07;;;;;;;14.48;3.65;;;-0.20;99.90;;;;;;5005309;28;20413;-60
2024/01/26 04:21:32;;;;;;;17.75;4.05;;;-0.20;99.90;;;;;;5008309;28;20068;-60
2024/01/26 04:23:58;;;;;;;13.65;3.13;;;-0.20;99.90;;;;;;5011367;28;20033;-59
2024/01/26 04:26:23;;;;;;;21.63;4.03;;;-0.10;99.90;;;;;;5011685;28;20033;-60
2024/01/26 04:28:49;;;;;;;20.67;4.30;;;-0.10;99.90;;;;;;5011350;28;20029;-60
2024/01/26 04:31:15;;;;;;;12.15;3.70;;;0.00;99.90;;;;;;5005998;28;20034;-60
2024/01/26 04:33:40;;;;;;;11.30;3.35;;;0.10;99.90;;;;;;5007869;28;20057;-61
2024/01/26 04:36:09;;;;;;;11.45;3.47;;;0.20;99.90;;;;;;5014272;28;20068;-61
2024/01/26 04:38:37;;;;;;;19.30;4.78;;;0.20;99.90;;;;;;5013266;28;20489;-60
2024/01/26 04:41:03;;;;;;;9.75;4.13;;;0.30;99.90;;;;;;5014092;28;20053;-60
2024/01/26 04:43:29;;;;;;;20.75;4.50;;;0.30;99.90;;;;;;5015343;28;20034;-60
2024/01/26 04:45:55;;;;;;;21.13;4.38;;;0.40;99.90;;;;;;5015574;28;20032;-64
2024/01/26 04:48:21;;;;;;;11.38;4.28;;;0.40;99.90;;;;;;5015445;28;20026;-64
2024/01/26 04:50:46;;;;;;;20.25;4.65;;;0.50;99.90;;;;;;5013479;28;20029;-64
2024/01/26 04:53:12;;;;;;;20.95;5.28;;;0.50;99.90;;;;;;5010274;28;20565;-64
2024/01/26 04:55:37;;;;;;;16.02;4.20;;;0.50;99.90;;;;;;5006108;28;20028;-65
2024/01/26 04:58:03;;;;;;;15.63;4.10;;;0.60;99.90;;;;;;5005262;28;20061;-65
2024/01/26 05:00:29;;;;;;;16.10;5.97;;;0.70;99.90;;;;;;5007585;28;20045;-65
2024/01/26 05:02:54;;;;;;;17.10;5.30;;;0.70;99.90;;;;;;5002545;28;20044;-65
2024/01/26 05:05:19;;;;;;;21.77;5.53;;;0.80;99.90;;;;;;5006984;28;20076;-64
2024/01/26 05:07:45;;;;;;;19.77;5.13;;;0.90;99.90;;;;;;5015946;28;20024;-66
2024/01/26 05:10:11;;;;;;;11.93;5.22;;;1.00;99.90;;;;;;5003973;28;20490;-65
2024/01/26 05:12:36;;;;;;;21.63;5.72;;;1.00;99.90;;;;;;5009168;28;20024;-64
2024/01/26 05:15:02;;;;;;;22.20;6.32;;;1.00;99.90;;;;;;5007692;28;20025;-64
2024/01/26 05:17:28;;;;;;;20.52;5.63;;;1.10;99.90;;;;;;5004022;28;20081;-64
2024/01/26 05:19:53;;;;;;;19.15;5.50;;;1.20;99.90;;;;;;5007868;28;20487;-64
2024/01/26 05:22:19;;;;;;;16.75;5.38;;;1.20;99.90;;;;;;5007669;28;20025;-66
2024/01/26 05:24:45;;;;;;;22.27;5.40;;;1.20;99.90;;;;;;5006584;28;20088;-65
2024/01/26 05:27:11;;;;;;;19.90;5.78;;;1.20;99.90;;;;;;5017954;28;20619;-65
2024/01/26 05:29:36;;;;;;;17.90;5.35;;;1.20;99.90;;;;;;5018731;28;20034;-66
2024/01/26 05:32:03;;;;;;;10.88;4.43;;;1.30;99.90;;;;;;5009475;28;20029;-65
2024/01/26 05:34:28;;;;;;;11.82;5.78;;;1.30;99.90;;;;;;5010968;28;20043;-65
2024/01/26 05:36:54;;;;;;;14.10;4.63;;;1.20;99.90;;;;;;5007308;28;20038;-64
2024/01/26 05:39:19;;;;;;;15.32;5.57;;;1.30;99.90;;;;;;5012853;28;20509;-65
2024/01/26 05:41:45;;;;;;;18.55;5.65;;;1.30;99.90;;;;;;5013390;28;20033;-64
2024/01/26 05:44:11;;;;;;;13.48;6.25;;;1.30;99.90;;;;;;5013856;28;20033;-65
2024/01/26 05:46:36;;;;;;;16.20;6.30;;;1.30;99.90;;;;;;5008442;28;20034;-65
2024/01/26 05:49:02;;;;;;;17.90;5.07;;;1.30;99.90;;;;;;5019959;28;20021;-64
2024/01/26 05:51:27;;;;;;;14.77;5.57;;;1.20;99.90;;;;;;5012361;28;20036;-65
2024/01/26 05:53:53;;;;;;;11.15;4.65;;;1.20;99.90;;;;;;5010176;28;20033;-64
2024/01/26 05:56:19;;;;;;;19.02;5.38;;;1.30;99.90;;;;;;5007660;28;20042;-64
2024/01/26 05:58:45;;;;;;;32.55;8.45;;;1.30;99.90;;;;;;5021629;28;20155;-65
2024/01/26 06:01:11;;;;;;;19.55;6.25;;;1.30;99.90;;;;;;5014288;28;20091;-65
2024/01/26 06:03:36;;;;;;;18.25;5.63;;;1.30;99.90;;;;;;5007365;28;20509;-65
2024/01/26 06:06:02;;;;;;;9.80;5.10;;;1.30;99.90;;;;;;5008002;28;20057;-64
2024/01/26 06:08:27;;;;;;;19.23;6.13;;;1.40;99.90;;;;;;5022253;28;20419;-64
2024/01/26 06:10:55;;;;;;;14.55;6.97;;;1.40;99.90;;;;;;5013420;28;20710;-65
2024/01/26 06:13:21;;;;;;;12.65;5.13;;;1.40;99.90;;;;;;5012941;28;20022;-66
2024/01/26 06:15:46;;;;;;;17.90;5.63;;;1.40;99.90;;;;;;5017935;28;20071;-64
2024/01/26 06:18:12;;;;;;;12.15;5.38;;;1.40;99.90;;;;;;5013729;28;20026;-64
2024/01/26 06:20:39;;;;;;;16.88;5.95;;;1.40;99.90;;;;;;5013957;28;20169;-64
2024/01/26 06:23:04;;;;;;;17.27;6.25;;;1.40;99.90;;;;;;5021211;28;20025;-65
2024/01/26 06:25:30;;;;;;;17.55;5.47;;;1.40;99.90;;;;;;5015743;28;20028;-66
2024/01/26 06:27:56;;;;;;;12.10;5.35;;;1.50;99.90;;;;;;5017820;28;20383;-66
2024/01/26 06:30:21;;;;;;;21.13;6.32;;;1.50;99.90;;;;;;5020443;28;20047;-65
2024/01/26 06:32:47;;;;;;;17.17;5.28;;;1.60;99.90;;;;;;5020346;28;20037;-66
2024/01/26 06:35:12;;;;;;;10.95;5.45;;;1.60;99.90;;;;;;5014341;28;20037;-66
2024/01/26 06:37:38;;;;;;;18.65;5.03;;;1.60;99.90;;;;;;5015191;28;20399;-66
2024/01/26 06:40:04;;;;;;;16.15;5.97;;;1.70;99.90;;;;;;5015216;28;20564;-66
2024/01/26 06:42:32;;;;;;;16.13;6.05;;;1.60;99.90;;;;;;5017256;28;20030;-65
2024/01/26 06:44:57;;;;;;;23.58;6.63;;;1.60;99.90;;;;;;5020798;28;20017;-66
2024/01/26 06:47:23;;;;;;;17.15;7.18;;;1.60;99.90;;;;;;5019960;28;20014;-65
2024/01/26 06:49:48;;;;;;;26.40;7.93;;;1.50;99.90;;;;;;5015109;28;20442;-64
2024/01/26 06:52:14;;;;;;;18.98;6.63;;;1.50;99.90;;;;;;5014663;28;20021;-64
2024/01/26 06:54:39;;;;;;;20.77;7.32;;;1.50;99.90;;;;;;5022880;28;20124;-66
2024/01/26 06:57:05;;;;;;;28.15;8.75;;;1.60;99.90;;;;;;5009213;28;20512;-65
2024/01/26 06:59:32;;;;;;;31.60;9.23;;;1.60;99.90;;;;;;5014393;28;20512;-64
2024/01/26 07:01:58;;;;;;;27.17;8.80;;;1.60;99.90;;;;;;5011761;28;20494;-64
2024/01/26 07:04:23;;;;;;;23.60;8.90;;;1.60;99.90;;;;;;5016730;28;20553;-66
2024/01/26 07:06:49;;;;;;;23.50;8.43;;;1.70;99.90;;;;;;5009129;28;20029;-64
2024/01/26 07:09:15;;;;;;;18.33;7.70;;;1.70;99.90;;;;;;5007460;28;20029;-65
2024/01/26 07:11:41;;;;;;;24.55;7.13;;;1.80;99.90;;;;;;5016728;28;20472;-65
2024/01/26 07:14:07;;;;;;;20.42;6.40;;;1.80;99.90;;;;;;5012907;28;20065;-66
2024/01/26 07:16:32;;;;;;;22.40;6.97;;;1.90;99.90;;;;;;5012729;28;20022;-66
2024/01/26 07:18:58;;;;;;;25.63;8.38;;;1.90;99.90;;;;;;5020432;28;20034;-65
2024/01/26 07:21:23;;;;;;;31.85;9.40;;;1.90;99.90;;;;;;5020152;28;20029;-65
2024/01/26 07:23:49;;;;;;;24.35;7.72;;;1.90;99.90;;;;;;5019146;28;20116;-66
2024/01/26 07:26:21;;;;;;;27.35;6.60;;;1.90;99.90;;;;;;5015500;28;20029;-65
2024/01/26 07:28:50;;;;;;;27.08;7.18;;;1.90;99.90;;;;;;5012114;28;20033;-66
2024/01/26 07:31:15;;;;;;;19.73;6.95;;;1.90;99.90;;;;;;5010495;28;20116;-65
2024/01/26 07:33:41;;;;;;;21.40;7.30;;;1.90;99.90;;;;;;5017906;28;20064;-66
2024/01/26 07:36:06;;;;;;;19.90;7.57;;;1.90;99.90;;;;;;5011594;28;20160;-66
2024/01/26 07:38:32;;;;;;;21.55;6.55;;;2.00;99.90;;;;;;5013224;28;20041;-66
2024/01/26 07:40:57;;;;;;;13.52;6.60;;;2.10;99.90;;;;;;5021454;28;20059;-66
2024/01/26 07:43:23;;;;;;;19.75;5.80;;;2.10;99.90;;;;;;5011987;28;20420;-66
2024/01/26 07:45:49;;;;;;;14.27;5.18;;;2.10;99.90;;;;;;5003433;28;20030;-65
2024/01/26 07:48:14;;;;;;;18.80;6.32;;;2.20;99.90;;;;;;5008077;28;20098;-65
2024/01/26 07:50:43;;;;;;;15.88;6.13;;;2.20;99.90;;;;;;5005856;28;20034;-65
2024/01/26 07:53:09;;;;;;;17.02;6.53;;;2.30;99.90;;;;;;5006349;28;20045;-65
2024/01/26 07:55:34;;;;;;;36.80;10.43;;;2.30;99.90;;;;;;5006784;28;20480;-65
2024/01/26 07:58:00;;;;;;;26.13;7.72;;;2.40;99.90;;;;;;5004128;28;20268;-65
2024/01/26 08:00:26;;;;;;;34.13;10.35;;;2.40;99.90;;;;;;5013329;28;20049;-66
2024/01/26 08:02:52;;;;;;;27.98;7.65;;;2.50;99.90;;;;;;5003256;28;20045;-66
2024/01/26 08:05:17;;;;;;;27.45;8.13;;;2.60;99.90;;;;;;5004431;28;20030;-66
2024/01/26 08:07:43;;;;;;;21.80;7.13;;;2.70;99.90;;;;;;5006344;28;20042;-66
2024/01/26 08:10:09;;;;;;;19.42;6.40;;;2.70;99.90;;;;;;5007740;28;20021;-66
2024/01/26 08:12:35;;;;;;;23.98;6.68;;;2.80;99.90;;;;;;5006497;28;20029;-65
2024/01/26 08:15:01;;;;;;;27.05;8.82;;;2.90;99.90;;;;;;5009512;28;20402;-66
2024/01/26 08:17:26;;;;;;;22.85;7.45;;;2.90;99.90;;;;;;5006822;28;20057;-66
2024/01/26 08:19:52;;;;;;;26.83;7.22;;;3.00;99.90;;;;;;5007229;28;20025;-65
2024/01/26 08:22:17;;;;;;;18.77;7.50;;;3.10;99.90;;;;;;5006343;28;20444;-66
2024/01/26 08:24:43;;;;;;;16.98;6.28;;;3.30;99.90;;;;;;5014668;28;20035;-66
2024/01/26 08:27:08;;;;;;;24.92;7.07;;;3.30;99.90;;;;;;5020177;28;20461;-66
2024/01/26 08:29:34;;;;;;;19.42;7.22;;;3.40;99.90;;;;;;5013142;28;20029;-66
2024/01/26 08:31:59;;;;;;;38.03;10.20;;;3.50;99.90;;;;;;5019170;28;20031;-66
2024/01/26 08:34:25;;;;;;;31.73;16.58;;;3.60;99.90;;;;;;5019196;28;20159;-66
2024/01/26 08:36:50;;;;;;;56.17;24.35;;;3.80;99.90;;;;;;5013528;28;20068;-66
2024/01/26 08:39:16;;;;;;;34.45;12.18;;;3.90;99.90;;;;;;5011292;28;20394;-65
2024/01/26 08:41:43;;;;;;;30.83;10.02;;;4.00;99.90;;;;;;5017005;28;20021;-66
2024/01/26 08:44:10;;;;;;;41.88;16.17;;;4.10;99.90;;;;;;5007901;28;20549;-66
2024/01/26 08:46:36;;;;;;;31.80;8.77;;;4.20;99.90;;;;;;5010399;28;20091;-66
2024/01/26 08:49:02;;;;;;;38.08;14.18;;;4.30;99.90;;;;;;5010735;28;20402;-66
2024/01/26 08:51:29;;;;;;;79.57;36.75;;;4.30;99.90;;;;;;5004986;28;20030;-66
2024/01/26 08:53:54;;;;;;;47.55;22.42;;;4.40;99.90;;;;;;5007445;28;20112;-66
2024/01/26 08:56:20;;;;;;;75.95;29.50;;;4.50;99.90;;;;;;5007113;28;20459;-65
2024/01/26 08:58:45;;;;;;;31.23;11.90;;;4.50;99.90;;;;;;5006451;28;20030;-66
2024/01/26 09:01:11;;;;;;;64.75;23.77;;;4.60;99.90;;;;;;5009331;28;20037;-66
2024/01/26 09:03:37;;;;;;;52.30;29.63;;;4.70;99.90;;;;;;5009852;28;20399;-66
2024/01/26 09:06:02;;;;;;;31.88;14.48;;;4.70;99.90;;;;;;5010833;28;20425;-66
2024/01/26 09:08:28;;;;;;;52.45;19.00;;;4.80;99.90;;;;;;5013458;28;20092;-66
2024/01/26 09:10:53;;;;;;;31.48;13.35;;;4.80;99.90;;;;;;5008012;28;20053;-66
2024/01/26 09:13:20;;;;;;;40.03;15.77;;;4.90;99.90;;;;;;5013052;28;20018;-66
2024/01/26 09:15:46;;;;;;;22.77;9.50;;;5.00;99.90;;;;;;5011007;28;20065;-66
2024/01/26 09:18:12;;;;;;;20.48;8.60;;;5.10;99.90;;;;;;5009390;28;20058;-66
2024/01/26 09:20:37;;;;;;;28.70;8.13;;;5.30;99.90;;;;;;5010471;28;20026;-66
2024/01/26 09:23:03;;;;;;;23.48;7.47;;;5.40;99.90;;;;;;5013121;28;20029;-66
2024/01/26 09:25:28;;;;;;;18.33;6.47;;;5.50;99.90;;;;;;5007820;28;20034;-66
2024/01/26 09:27:54;;;;;;;35.22;13.52;;;5.60;99.90;;;;;;5010204;28;20045;-66
2024/01/26 09:30:19;;;;;;;36.70;13.52;;;5.80;99.90;;;;;;5010801;28;20044;-66
2024/01/26 09:32:45;;;;;;;31.27;13.02;;;5.80;99.90;;;;;;5007946;28;20026;-67
2024/01/26 09:35:12;;;;;;;26.23;8.35;;;5.90;99.90;;;;;;5008877;28;20405;-66
2024/01/26 09:37:37;;;;;;;26.35;8.15;;;5.90;99.90;;;;;;5010726;28;20033;-66
2024/01/26 09:40:04;;;;;;;22.88;6.93;;;5.90;99.90;;;;;;5007412;28;20549;-66
2024/01/26 09:42:30;;;;;;;22.08;8.13;;;5.90;99.90;;;;;;5014012;28;20034;-66
2024/01/26 09:44:55;;;;;;;21.88;7.88;;;5.90;99.90;;;;;;5012084;28;20469;-66
2024/01/26 09:47:21;;;;;;;25.30;6.85;;;6.00;99.90;;;;;;5006890;28;20022;-66
2024/01/26 09:49:55;;;;;;;14.88;5.97;;;6.00;99.90;;;;;;5021801;28;20493;-66
2024/01/26 09:52:22;;;;;;;20.33;5.70;;;6.20;99.90;;;;;;5022117;28;20052;-66
2024/01/26 09:54:49;;;;;;;19.48;5.93;;;6.40;99.90;;;;;;5014007;28;20022;-66
2024/01/26 09:57:16;;;;;;;23.77;7.68;;;6.50;99.90;;;;;;5016452;28;20041;-67
2024/01/26 09:59:42;;;;;;;24.38;6.78;;;6.70;99.90;;;;;;5015399;28;20105;-66
2024/01/26 10:02:10;;;;;;;22.38;7.50;;;6.80;99.90;;;;;;5007269;28;20168;-66
2024/01/26 10:04:36;;;;;;;24.13;6.88;;;7.00;99.90;;;;;;5009444;28;20026;-66
2024/01/26 10:07:02;;;;;;;27.92;7.95;;;7.00;99.90;;;;;;5011724;28;20052;-66
2024/01/26 10:09:29;;;;;;;21.00;6.95;;;7.00;99.90;;;;;;5007651;28;20033;-66
2024/01/26 10:11:54;;;;;;;16.80;5.65;;;7.00;99.90;;;;;;5021861;28;20148;-66
2024/01/26 10:14:23;;;;;;;21.65;6.70;;;7.10;99.90;;;;;;5016026;28;20100;-66
2024/01/26 10:16:56;;;;;;;21.45;7.38;;;7.10;99.90;;;;;;5007166;28;20033;-65
2024/01/26 10:19:25;;;;;;;25.95;8.05;;;7.20;99.90;;;;;;5008727;28;20031;-66
2024/01/26 10:21:52;;;;;;;16.25;7.38;;;7.20;99.90;;;;;;5012257;28;20076;-66
2024/01/26 10:24:21;;;;;;;16.63;7.13;;;7.30;99.90;;;;;;5013568;28;20411;-66
2024/01/26 10:26:47;;;;;;;24.60;7.80;;;7.30;99.90;;;;;;5021455;28;20031;-66
2024/01/26 10:29:13;;;;;;;16.88;6.68;;;7.30;99.90;;;;;;5020818;28;20033;-66
2024/01/26 10:31:41;;;;;;;16.15;6.30;;;7.20;99.90;;;;;;5014852;28;20033;-66
2024/01/26 10:34:13;;;;;;;19.63;7.07;;;7.20;99.90;;;;;;5011847;28;20115;-66
2024/01/26 10:36:42;;;;;;;17.33;5.97;;;7.20;99.90;;;;;;5014768;28;20306;-66
2024/01/26 10:39:29;;;;;;;25.90;6.78;;;7.20;99.90;;;;;;5015730;28;20498;-66
2024/01/26 10:42:03;;;;;;;17.60;5.82;;;7.10;99.90;;;;;;5011822;28;20042;-66
2024/01/26 10:44:29;;;;;;;22.73;6.63;;;7.10;99.90;;;;;;5014327;28;20119;-66
2024/01/26 10:46:57;;;;;;;30.00;8.25;;;7.20;99.90;;;;;;5019572;28;20075;-66
2024/01/26 10:49:23;;;;;;;27.15;6.43;;;7.20;99.90;;;;;;5021220;28;20445;-60
2024/01/26 10:51:52;;;;;;;16.05;5.85;;;7.20;99.90;;;;;;5021051;28;20056;-65
2024/01/26 10:54:18;;;;;;;21.92;6.20;;;7.30;99.90;;;;;;5012713;28;20118;-64
2024/01/26 10:56:43;;;;;;;20.48;5.95;;;7.30;99.90;;;;;;5018387;28;20052;-65
2024/01/26 10:59:10;;;;;;;21.02;7.00;;;7.20;99.90;;;;;;5014671;28;20057;-64
2024/01/26 11:01:37;;;;;;;22.95;6.88;;;7.30;99.90;;;;;;5009199;28;20132;-65
2024/01/26 11:04:03;;;;;;;17.88;5.47;;;7.20;99.90;;;;;;5015938;28;23236;-64
2024/01/26 11:06:31;;;;;;;12.48;4.60;;;7.20;99.90;;;;;;5020790;28;20468;-64
2024/01/26 11:09:03;;;;;;;12.43;5.80;;;7.30;99.90;;;;;;5020777;28;20099;-64
2024/01/26 11:11:32;;;;;;;20.33;7.20;;;7.50;99.90;;;;;;5020723;28;20029;-65
2024/01/26 11:14:02;;;;;;;24.73;12.25;;;7.60;99.90;;;;;;5020487;28;20045;-64
2024/01/26 11:16:32;;;;;;;58.17;33.22;;;7.70;99.90;;;;;;5020857;28;20266;-64
2024/01/26 11:18:58;;;;;;;28.40;15.27;;;7.70;99.90;;;;;;5019041;28;20059;-64
2024/01/26 11:21:24;;;;;;;26.70;9.85;;;7.80;99.90;;;;;;5015642;28;20099;-64
2024/01/26 11:23:49;;;;;;;33.20;15.40;;;7.90;99.90;;;;;;5022212;28;20512;-64
2024/01/26 11:26:15;;;;;;;22.77;10.00;;;7.90;99.90;;;;;;5020455;28;20033;-65
2024/01/26 11:28:41;;;;;;;24.70;7.22;;;8.00;99.90;;;;;;5019121;28;20029;-65
2024/01/26 11:31:07;;;;;;;16.70;6.72;;;8.00;99.90;;;;;;5020512;28;20025;-64
2024/01/26 11:33:35;;;;;;;13.95;6.10;;;8.10;99.90;;;;;;5018744;28;20030;-64
2024/01/26 11:36:05;;;;;;;16.17;6.90;;;8.00;99.90;;;;;;5020318;28;20049;-64
2024/01/26 11:38:32;;;;;;;15.93;5.55;;;8.10;99.90;;;;;;5019055;28;20028;-64
2024/01/26 11:40:58;;;;;;;17.27;5.53;;;8.10;99.90;;;;;;5015873;28;20440;-64
2024/01/26 11:43:25;;;;;;;16.67;5.65;;;8.10;99.90;;;;;;5018742;28;20103;-64
2024/01/26 11:45:51;;;;;;;17.65;6.05;;;8.10;99.90;;;;;;5015756;28;20108;-64
2024/01/26 11:48:17;;;;;;;15.55;5.65;;;8.10;99.90;;;;;;5007628;28;20117;-64
2024/01/26 11:50:44;;;;;;;12.50;5.63;;;8.10;99.90;;;;;;5006365;28;20498;-65
2024/01/26 11:53:10;;;;;;;14.95;6.25;;;8.10;99.90;;;;;;5008487;28;20402;-64
2024/01/26 11:55:38;;;;;;;10.85;4.68;;;8.10;99.90;;;;;;5005624;28;20064;-65
2024/01/26 11:58:05;;;;;;;12.65;5.20;;;8.10;99.90;;;;;;5007781;28;20567;-64
2024/01/26 12:00:30;;;;;;;17.10;5.22;;;8.10;99.90;;;;;;5013424;28;20096;-65
2024/01/26 12:02:56;;;;;;;12.43;4.88;;;8.10;99.90;;;;;;5016523;28;20029;-64
2024/01/26 12:05:22;;;;;;;47.67;28.83;;;8.10;99.90;;;;;;5018499;28;20025;-65
2024/01/26 12:07:48;;;;;;;23.73;13.07;;;8.10;99.90;;;;;;5015846;28;20021;-65
2024/01/26 12:10:14;;;;;;;17.20;9.30;;;8.10;99.90;;;;;;5007566;28;20024;-65
2024/01/26 12:12:44;;;;;;;12.98;6.90;;;8.00;99.90;;;;;;5009454;28;20021;-65
2024/01/26 12:15:10;;;;;;;15.60;7.82;;;8.00;99.90;;;;;;5008001;28;20075;-65
2024/01/26 12:17:36;;;;;;;9.65;5.32;;;8.00;99.90;;;;;;5004770;28;20537;-64
2024/01/26 12:20:08;;;;;;;17.77;5.18;;;8.00;99.90;;;;;;5007403;28;20037;-65
2024/01/26 12:22:34;;;;;;;15.52;4.65;;;8.00;99.90;;;;;;5012378;28;20026;-65
2024/01/26 12:25:03;;;;;;;10.70;4.57;;;8.00;99.90;;;;;;5015058;28;20032;-65
2024/01/26 12:27:29;;;;;;;11.50;4.88;;;8.10;99.90;;;;;;5015484;28;20181;-65
2024/01/26 12:29:54;;;;;;;13.00;4.32;;;8.10;99.90;;;;;;5013179;28;20112;-64
2024/01/26 12:32:20;;;;;;;10.52;4.30;;;8.10;99.90;;;;;;5013442;28;20043;-64
2024/01/26 12:34:45;;;;;;;11.63;3.88;;;8.10;99.90;;;;;;5011023;28;20355;-65
2024/01/26 12:37:11;;;;;;;11.40;4.22;;;8.10;99.90;;;;;;5015063;28;20037;-64
2024/01/26 12:39:37;;;;;;;11.95;3.92;;;8.10;99.90;;;;;;5013822;28;20032;-65